Time;durP1;ratioP1;P1;durP2;ratioP2;P2;SDS_P1;SDS_P2;PMS_P1;PMS_P2;Temp;Humidity;BMP_temperature;BMP_pressure;BME280_temperature;BME280_humidity;BME280_pressure;Samples;Min_cycle;Max_cycle;Signal;HPM_P1;HPM_P2
2022/05/30 00:01:11;;;;;;;8.33;3.02;;;;;;;10.11;71.65;100066.22;1793049;79;21001;-70
2022/05/30 00:03:37;;;;;;;7.00;2.70;;;;;;;10.08;71.71;100066.56;1795818;79;21017;-70
2022/05/30 00:06:07;;;;;;;6.25;3.08;;;;;;;10.05;71.78;100056.27;1796465;79;20992;-70
2022/05/30 00:08:33;;;;;;;3.50;2.12;;;;;;;10.03;71.84;100056.92;1798351;79;21470;-70
2022/05/30 00:11:05;;;;;;;10.30;3.87;;;;;;;9.95;71.90;100049.00;1777073;79;21876;-70
2022/05/30 00:13:31;;;;;;;4.67;2.60;;;;;;;9.90;71.97;100050.84;1760572;79;21477;-70
2022/05/30 00:15:58;;;;;;;5.03;2.30;;;;;;;9.87;72.05;100059.19;1758484;81;20999;-70
2022/05/30 00:18:24;;;;;;;4.60;2.12;;;;;;;9.84;72.14;100056.04;1736857;81;21027;-70
2022/05/30 00:20:50;;;;;;;7.37;3.65;;;;;;;9.83;72.21;100058.36;1684618;84;21014;-70
2022/05/30 00:23:16;;;;;;;7.92;3.90;;;;;;;9.80;72.27;100058.72;1682441;84;21852;-70
2022/05/30 00:25:42;;;;;;;6.22;3.05;;;;;;;9.79;72.34;100056.55;1700714;83;21042;-70
2022/05/30 00:28:08;;;;;;;4.28;2.85;;;;;;;9.82;72.40;100058.03;1758809;81;21049;-70
2022/05/30 00:30:35;;;;;;;5.90;3.45;;;;;;;9.77;72.43;100060.40;1758490;81;21077;-70
2022/05/30 00:33:01;;;;;;;6.00;2.50;;;;;;;9.74;72.53;100055.42;1756873;81;21026;-70
2022/05/30 00:35:27;;;;;;;6.70;3.10;;;;;;;9.70;72.59;100052.77;1758361;81;21106;-70
2022/05/30 00:37:53;;;;;;;5.50;3.00;;;;;;;9.70;72.63;100054.10;1754163;81;20979;-70
2022/05/30 00:40:19;;;;;;;6.17;2.80;;;;;;;9.70;72.70;100052.77;1754540;81;21069;-70
2022/05/30 00:42:45;;;;;;;9.90;3.08;;;;;;;9.66;72.77;100050.13;1737586;81;21019;-70
2022/05/30 00:45:12;;;;;;;5.03;3.10;;;;;;;9.66;72.84;100050.13;1706027;83;20998;-70
2022/05/30 00:47:38;;;;;;;5.50;2.90;;;;;;;9.61;72.93;100049.30;1759680;81;21148;-70
2022/05/30 00:50:05;;;;;;;10.03;4.42;;;;;;;9.59;73.03;100049.15;1760431;81;21030;-69
2022/05/30 00:52:39;;;;;;;6.10;3.70;;;;;;;9.62;73.12;100047.47;1737006;81;21034;-70
2022/05/30 00:55:18;;;;;;;5.05;3.20;;;;;;;9.65;73.14;100049.28;1684396;83;21099;-70
2022/05/30 00:57:45;;;;;;;10.48;4.20;;;;;;;9.57;73.21;100043.18;1737109;82;26649;-70
2022/05/30 01:00:19;;;;;;;13.83;6.37;;;;;;;9.49;73.33;100041.38;1762369;81;21606;-70
2022/05/30 01:02:45;;;;;;;19.25;8.23;;;;;;;9.46;73.44;100045.19;1704366;81;21077;-70
2022/05/30 01:07:59;;;;;;;14.05;4.75;;;;;;;9.42;73.60;100041.73;1758826;81;20997;-70
2022/05/30 01:10:25;;;;;;;12.65;5.10;;;;;;;9.38;73.69;100042.57;1761181;81;21015;-70
2022/05/30 01:12:57;;;;;;;12.30;4.72;;;;;;;9.37;73.81;100037.41;1716433;80;21836;-70
2022/05/30 01:15:30;;;;;;;11.95;4.58;;;;;;;9.35;73.90;100038.09;1766124;80;21492;-70
2022/05/30 01:18:17;;;;;;;10.93;4.70;;;;;;;9.31;73.98;100038.94;1777321;80;21054;-70
2022/05/30 01:21:17;;;;;;;6.22;3.27;;;;;;;9.30;74.11;100035.09;1772049;80;21516;-70
2022/05/30 01:24:27;;;;;;;7.37;3.50;;;;;;;9.32;74.22;100039.77;1758115;80;20959;-70
2022/05/30 01:27:24;;;;;;;6.65;3.45;;;;;;;9.32;74.31;100034.45;1717873;83;21140;-70
2022/05/30 01:29:54;;;;;;;7.72;3.72;;;;;;;9.30;74.43;100029.28;1745137;80;21458;-70
2022/05/30 01:32:22;;;;;;;5.12;3.15;;;;;;;9.34;74.54;100027.94;1776932;80;20979;-70
2022/05/30 01:34:48;;;;;;;11.05;4.08;;;;;;;9.39;74.59;100036.22;1775359;80;21011;-70
2022/05/30 01:37:14;;;;;;;7.03;4.58;;;;;;;9.41;74.65;100035.57;1776639;80;20990;-70
2022/05/30 01:39:40;;;;;;;7.40;4.37;;;;;;;9.42;74.72;100025.27;1777847;80;21133;-70
2022/05/30 01:42:06;;;;;;;8.75;4.33;;;;;;;9.44;74.80;100023.74;1759446;80;21529;-70
2022/05/30 01:44:33;;;;;;;7.17;4.15;;;;;;;9.44;74.87;100018.42;1747885;81;20960;-70
2022/05/30 01:46:59;;;;;;;4.75;3.45;;;;;;;9.46;74.94;100017.23;1773969;80;20979;-70
2022/05/30 01:49:26;;;;;;;6.30;3.80;;;;;;;9.44;74.99;100019.75;1777779;80;21368;-70
2022/05/30 01:51:54;;;;;;;8.13;3.95;;;;;;;9.42;75.06;100019.94;1778221;80;21155;-70
2022/05/30 01:54:20;;;;;;;8.78;5.08;;;;;;;9.40;75.11;100023.75;1769708;80;21034;-70
2022/05/30 01:56:46;;;;;;;10.90;5.20;;;;;;;9.37;75.17;100023.61;1754983;80;21053;-70
2022/05/30 01:59:12;;;;;;;8.20;4.50;;;;;;;9.38;75.28;100019.95;1717492;83;21016;-71
2022/05/30 02:01:41;;;;;;;6.37;4.30;;;;;;;9.37;75.34;100019.61;1717779;83;21457;-70
2022/05/30 02:04:07;;;;;;;6.53;4.05;;;;;;;9.33;75.41;100024.94;1717352;83;21218;-70
2022/05/30 02:06:35;;;;;;;6.67;4.20;;;;;;;9.31;75.49;100020.30;1717507;83;21450;-70
2022/05/30 02:09:01;;;;;;;6.22;3.90;;;;;;;9.33;75.54;100022.78;1762224;80;21055;-70
2022/05/30 02:11:28;;;;;;;10.05;3.85;;;;;;;9.29;75.61;100014.83;1749238;80;20998;-69
2022/05/30 02:13:54;;;;;;;4.67;3.60;;;;;;;9.25;75.67;100014.34;1752337;81;21040;-70
2022/05/30 02:19:04;;;;;;;7.87;5.10;;;;;;;9.14;75.78;100020.02;1730914;81;20995;-70
2022/05/30 02:21:34;;;;;;;7.67;4.17;;;;;;;9.10;75.86;100018.70;1745052;81;21040;-70
2022/05/30 02:24:01;;;;;;;;;;;;;;;9.07;75.93;100017.71;1762620;81;21076;-70
2022/05/30 02:26:27;;;;;;;8.33;5.45;;;;;;;9.08;75.99;100011.37;1760348;81;20142;-70
2022/05/30 02:28:53;;;;;;;9.33;4.12;;;;;;;9.06;76.01;100013.37;1760116;81;21169;-70
2022/05/30 02:31:19;;;;;;;6.50;3.83;;;;;;;9.04;76.00;100007.41;1760136;81;21485;-70
2022/05/30 02:36:38;;;;;;;5.33;3.90;;;;;;;9.02;76.11;100011.56;1712177;83;21090;-69
2022/05/30 02:39:11;;;;;;;5.28;2.92;;;;;;;8.94;76.16;100012.06;1727315;83;21054;-70
2022/05/30 02:41:37;;;;;;;5.53;3.00;;;;;;;8.83;76.23;100008.45;1711764;82;21115;-69
2022/05/30 02:44:03;;;;;;;8.65;3.60;;;;;;;8.70;76.27;100012.93;1726933;83;21033;-70
2022/05/30 02:46:30;;;;;;;8.53;3.95;;;;;;;8.66;76.35;100014.75;1711894;83;21016;-70
2022/05/30 02:48:56;;;;;;;6.47;3.37;;;;;;;8.62;76.40;100009.46;1727589;81;21019;-70
2022/05/30 02:51:22;;;;;;;6.53;3.50;;;;;;;8.63;76.45;100013.76;1757885;81;21493;-70
2022/05/30 02:53:48;;;;;;;8.10;3.50;;;;;;;8.69;76.48;100013.11;1758522;81;21129;-69
2022/05/30 02:56:15;;;;;;;8.18;4.20;;;;;;;8.73;76.51;100015.74;1758611;81;21013;-69
2022/05/30 02:58:42;;;;;;;5.65;3.22;;;;;;;8.72;76.52;100010.95;1757473;81;20990;-70
2022/05/30 03:01:09;;;;;;;8.90;4.20;;;;;;;8.74;76.53;100012.09;1728996;83;21023;-70
2022/05/30 03:03:35;;;;;;;6.83;4.10;;;;;;;8.76;76.55;100016.77;1786954;80;21058;-70
2022/05/30 03:06:03;;;;;;;6.72;3.72;;;;;;;8.80;76.59;100015.41;1783115;79;21517;-70
2022/05/30 03:08:29;;;;;;;6.28;4.05;;;;;;;8.85;76.61;100012.59;1783308;79;21037;-70
2022/05/30 03:10:55;;;;;;;8.43;3.62;;;;;;;8.90;76.62;100017.41;1785894;79;21443;-70
2022/05/30 03:13:21;;;;;;;7.15;3.35;;;;;;;8.94;76.62;100017.38;1785441;79;21033;-70
2022/05/30 03:15:47;;;;;;;6.97;3.90;;;;;;;8.97;76.62;100014.41;1752751;81;21557;-70
2022/05/30 03:18:13;;;;;;;8.58;3.65;;;;;;;9.01;76.65;100018.36;1756962;81;21799;-70
2022/05/30 03:20:39;;;;;;;6.10;3.52;;;;;;;9.05;76.66;100018.36;1757480;81;20985;-69
2022/05/30 03:23:06;;;;;;;6.05;3.20;;;;;;;9.08;76.69;100016.69;1760529;81;21076;-70
2022/05/30 03:25:32;;;;;;;5.17;3.27;;;;;;;9.11;76.68;100024.36;1718893;82;21024;-70
2022/05/30 03:27:58;;;;;;;7.22;3.52;;;;;;;9.14;76.67;100021.84;1720044;82;21477;-69
2022/05/30 03:30:24;;;;;;;6.45;3.95;;;;;;;9.15;76.67;100025.65;1695268;84;21756;-70
2022/05/30 03:32:50;;;;;;;8.10;4.97;;;;;;;9.17;76.68;100019.67;1704306;84;21072;-69
2022/05/30 03:35:16;;;;;;;6.65;3.62;;;;;;;9.19;76.67;100026.97;1739616;81;21056;-70
2022/05/30 03:37:43;;;;;;;5.75;3.90;;;;;;;9.22;76.67;100029.30;1730239;82;21008;-70
2022/05/30 03:40:11;;;;;;;5.50;3.50;;;;;;;9.23;76.66;100030.96;1728947;81;21181;-70
2022/05/30 03:42:38;;;;;;;4.15;2.98;;;;;;;9.25;76.67;100031.64;1723344;82;21864;-70
2022/05/30 03:45:05;;;;;;;5.75;3.30;;;;;;;9.28;76.67;100028.63;1703786;82;21063;-69
2022/05/30 03:47:44;;;;;;;6.62;3.15;;;;;;;9.30;76.62;100031.11;1719506;82;21075;-70
2022/05/30 03:50:19;;;;;;;4.62;2.87;;;;;;;9.33;76.62;100032.92;1717398;82;21016;-69
2022/05/30 03:52:46;;;;;;;4.17;2.98;;;;;;;9.36;76.60;100035.23;1715990;82;21098;-69
2022/05/30 03:55:15;;;;;;;8.55;3.75;;;;;;;9.40;76.60;100036.56;1716497;82;21134;-70
2022/05/30 03:57:41;;;;;;;6.10;3.60;;;;;;;9.43;76.61;100034.88;1717320;82;21130;-69
2022/05/30 04:00:15;;;;;;;4.72;2.98;;;;;;;9.46;76.59;100030.55;1743213;81;21041;-70
2022/05/30 04:02:42;;;;;;;6.12;3.37;;;;;;;9.51;76.60;100032.20;1722934;82;21060;-69
2022/05/30 04:05:09;;;;;;;6.17;3.85;;;;;;;9.61;76.61;100035.98;1717675;82;21035;-70
2022/05/30 04:07:36;;;;;;;10.30;3.42;;;;;;;9.67;76.60;100031.82;1734393;81;21753;-70
2022/05/30 04:10:03;;;;;;;19.35;3.35;;;;;;;9.75;76.58;100033.93;1734981;81;21004;-70
2022/05/30 04:12:29;;;;;;;11.90;4.47;;;;;;;9.83;76.56;100033.91;1734892;81;21005;-69
2022/05/30 04:14:56;;;;;;;6.95;3.58;;;;;;;9.91;76.54;100038.36;1752744;80;21574;-70
2022/05/30 04:17:22;;;;;;;6.95;3.35;;;;;;;10.00;76.54;100037.30;1768700;80;21025;-69
2022/05/30 04:19:49;;;;;;;4.50;3.02;;;;;;;10.06;76.50;100036.63;1767172;80;21158;-70
2022/05/30 04:22:15;;;;;;;5.83;3.25;;;;;;;10.14;76.50;100027.72;1731263;80;21021;-70
2022/05/30 04:24:41;;;;;;;8.23;3.37;;;;;;;10.25;76.47;100036.19;1754189;80;21492;-70
2022/05/30 04:27:07;;;;;;;10.40;3.02;;;;;;;10.47;76.49;100031.88;1696971;82;21585;-70
2022/05/30 04:29:33;;;;;;;6.75;3.45;;;;;;;10.75;76.39;100032.98;1726746;82;21046;-70
2022/05/30 04:32:00;;;;;;;5.05;3.42;;;;;;;10.91;76.25;100034.65;1703596;82;21133;-69
2022/05/30 04:34:26;;;;;;;9.30;4.20;;;;;;;11.00;76.18;100030.41;1773095;80;21439;-70
2022/05/30 04:36:52;;;;;;;7.55;2.95;;;;;;;11.17;76.17;100024.91;1770046;80;21011;-69
2022/05/30 04:39:18;;;;;;;5.55;3.42;;;;;;;11.31;76.13;100028.92;1772284;80;20974;-70
2022/05/30 04:41:44;;;;;;;6.53;3.05;;;;;;;11.47;76.10;100035.40;1773493;80;20983;-70
2022/05/30 04:44:11;;;;;;;6.22;2.90;;;;;;;11.62;75.99;100030.56;1772140;80;21125;-70
2022/05/30 04:46:37;;;;;;;7.80;3.30;;;;;;;11.88;75.87;100036.28;1772001;80;20978;-70
2022/05/30 04:49:03;;;;;;;4.00;2.83;;;;;;;12.47;75.73;100029.73;1770838;80;21028;-70
2022/05/30 04:51:29;;;;;;;4.42;2.77;;;;;;;13.10;75.53;100032.55;1754415;80;21019;-70
2022/05/30 04:53:55;;;;;;;5.30;3.45;;;;;;;13.66;75.32;100019.91;1756170;80;20890;-70
2022/05/30 04:56:21;;;;;;;7.20;4.22;;;;;;;14.19;75.10;100032.48;1773699;80;21182;-70
2022/05/30 04:58:48;;;;;;;8.75;5.70;;;;;;;14.70;74.79;100030.15;1772840;80;21025;-70
2022/05/30 05:01:14;;;;;;;6.47;3.72;;;;;;;15.18;74.37;100034.77;1765321;80;21559;-71
2022/05/30 05:03:41;;;;;;;6.78;3.42;;;;;;;15.48;73.82;100029.26;1768321;80;20997;-71
2022/05/30 05:06:12;;;;;;;5.55;2.70;;;;;;;15.78;73.30;100028.77;1773045;80;21532;-71
2022/05/30 05:08:53;;;;;;;6.70;2.22;;;;;;;15.88;72.67;100033.17;1768391;80;21160;-71
2022/05/30 05:11:25;;;;;;;4.45;2.72;;;;;;;15.93;72.19;100034.71;1767146;80;21520;-71
2022/05/30 05:13:51;;;;;;;7.62;3.87;;;;;;;16.03;71.56;100037.77;1764741;80;21008;-71
2022/05/30 05:16:19;;;;;;;6.60;3.70;;;;;;;15.92;70.94;100035.74;1756587;80;21006;-70
2022/05/30 05:18:45;;;;;;;5.60;3.75;;;;;;;15.67;70.41;100038.83;1758192;80;21600;-71
2022/05/30 05:21:23;;;;;;;8.15;3.70;;;;;;;15.46;69.92;100043.41;1743179;81;21252;-70
2022/05/30 05:23:50;;;;;;;6.65;4.75;;;;;;;15.02;69.54;100045.95;1740043;81;21533;-70
2022/05/30 05:26:16;;;;;;;6.62;3.75;;;;;;;14.64;69.16;100047.56;1745831;81;20994;-70
2022/05/30 05:28:42;;;;;;;5.42;3.08;;;;;;;14.32;68.84;100051.29;1763813;80;21057;-70
2022/05/30 05:31:10;;;;;;;8.40;3.27;;;;;;;14.15;68.58;100055.37;1755856;80;21016;-71
2022/05/30 05:33:36;;;;;;;4.58;2.85;;;;;;;13.98;68.30;100051.39;1759392;80;21479;-70
2022/05/30 05:36:02;;;;;;;3.80;2.70;;;;;;;13.72;68.07;100052.09;1756606;80;21013;-70
2022/05/30 05:38:28;;;;;;;6.95;3.12;;;;;;;13.59;67.96;100053.87;1759482;80;20966;-70
2022/05/30 05:40:54;;;;;;;12.00;3.92;;;;;;;13.51;67.86;100055.69;1722183;82;20859;-70
2022/05/30 05:43:20;;;;;;;7.00;3.08;;;;;;;13.46;67.73;100052.80;1747370;81;22396;-71
2022/05/30 05:45:46;;;;;;;4.87;3.05;;;;;;;13.40;67.60;100058.11;1728606;82;21907;-70
2022/05/30 05:48:13;;;;;;;6.12;3.12;;;;;;;13.35;67.52;100058.69;1760671;80;20979;-70
2022/05/30 05:50:41;;;;;;;7.30;5.30;;;;;;;13.20;67.43;100059.30;1716993;82;21074;-70
2022/05/30 05:53:08;;;;;;;10.78;4.75;;;;;;;13.04;67.44;100058.23;1758518;80;21009;-70
2022/05/30 05:55:34;;;;;;;5.12;4.22;;;;;;;12.91;67.45;100066.16;1721006;82;21101;-70
2022/05/30 05:58:00;;;;;;;10.13;6.42;;;;;;;12.79;67.38;100064.50;1749567;81;21151;-70
2022/05/30 06:00:27;;;;;;;10.10;6.62;;;;;;;12.65;67.47;100071.26;1724277;82;21069;-70
2022/05/30 06:02:53;;;;;;;10.35;5.90;;;;;;;12.58;67.53;100070.37;1763551;80;21019;-70
2022/05/30 06:05:19;;;;;;;9.80;6.40;;;;;;;12.60;67.51;100073.66;1754762;81;21586;-70
2022/05/30 06:07:45;;;;;;;10.00;5.60;;;;;;;12.59;67.51;100073.38;1742051;81;21016;-70
2022/05/30 06:10:13;;;;;;;6.78;4.55;;;;;;;12.54;67.58;100067.24;1765907;80;21174;-70
2022/05/30 06:12:45;;;;;;;10.32;4.35;;;;;;;12.51;67.57;100067.13;1712195;82;21585;-70
2022/05/30 06:15:14;;;;;;;7.92;4.85;;;;;;;12.43;67.59;100073.92;1759833;80;21022;-70
2022/05/30 06:17:41;;;;;;;8.53;4.87;;;;;;;12.43;67.65;100073.92;1761375;80;21026;-70
2022/05/30 06:20:09;;;;;;;8.68;5.10;;;;;;;12.51;67.69;100070.30;1754593;80;21072;-70
2022/05/30 06:22:35;;;;;;;7.62;4.70;;;;;;;12.57;67.74;100069.53;1759010;80;21242;-70
2022/05/30 06:25:01;;;;;;;9.48;5.12;;;;;;;12.59;67.75;100066.68;1753790;80;21294;-70
2022/05/30 06:27:27;;;;;;;6.83;3.67;;;;;;;12.60;67.82;100069.66;1745518;81;21021;-70
2022/05/30 06:29:53;;;;;;;5.67;4.45;;;;;;;12.58;67.81;100067.69;1749950;81;20973;-70
2022/05/30 06:32:19;;;;;;;8.78;4.28;;;;;;;12.53;67.83;100069.09;1763929;80;21009;-70
2022/05/30 06:34:45;;;;;;;6.62;4.12;;;;;;;12.62;67.86;100078.33;1739256;81;21017;-70
2022/05/30 06:37:11;;;;;;;10.38;4.35;;;;;;;12.68;67.82;100071.70;1739274;81;21010;-70
2022/05/30 06:39:38;;;;;;;14.30;4.45;;;;;;;12.74;67.79;100072.77;1739786;81;21470;-70
2022/05/30 06:42:11;;;;;;;8.20;4.67;;;;;;;12.80;67.76;100069.35;1737314;81;21097;-70
2022/05/30 06:44:38;;;;;;;10.58;5.03;;;;;;;12.82;67.73;100067.30;1738325;81;21502;-70
2022/05/30 06:47:05;;;;;;;8.90;4.87;;;;;;;12.88;67.67;100070.03;1735272;81;21165;-70
2022/05/30 06:49:32;;;;;;;9.50;4.30;;;;;;;12.98;67.64;100072.40;1738192;81;21676;-70
2022/05/30 06:51:58;;;;;;;7.80;4.35;;;;;;;13.10;67.65;100070.86;1736425;81;21101;-70
2022/05/30 06:54:24;;;;;;;9.48;4.40;;;;;;;13.49;67.60;100069.81;1738531;81;21097;-70
2022/05/30 06:59:34;;;;;;;9.40;4.40;;;;;;;13.70;67.51;100077.44;1740976;81;21919;-70
2022/05/30 07:02:01;;;;;;;7.50;4.83;;;;;;;13.87;67.39;100080.11;1755211;80;21457;-70
2022/05/30 07:04:33;;;;;;;6.65;4.08;;;;;;;13.91;67.30;100058.58;1758690;81;21001;-70
2022/05/30 07:07:04;;;;;;;9.10;4.05;;;;;;;14.30;67.31;100069.97;1755983;80;21049;-70
2022/05/30 07:09:31;;;;;;;9.03;5.15;;;;;;;14.67;67.12;100069.99;1755874;81;21014;-71
2022/05/30 07:11:57;;;;;;;7.30;4.50;;;;;;;15.13;66.92;100072.16;1756369;80;21129;-71
2022/05/30 07:14:23;;;;;;;6.37;3.98;;;;;;;15.27;66.63;100076.49;1755839;80;21044;-71
2022/05/30 07:16:49;;;;;;;6.90;4.17;;;;;;;15.61;66.56;100074.63;1765226;79;21020;-71
2022/05/30 07:19:16;;;;;;;8.03;4.00;;;;;;;15.98;66.13;100069.33;1769014;79;20988;-70
2022/05/30 07:21:42;;;;;;;8.95;4.10;;;;;;;16.36;65.70;100068.01;1765458;79;21099;-70
2022/05/30 07:24:10;;;;;;;5.65;4.05;;;;;;;16.87;65.44;100071.97;1764972;79;21156;-71
2022/05/30 07:26:36;;;;;;;5.47;3.40;;;;;;;16.93;64.98;100068.39;1764010;79;21634;-70
2022/05/30 07:29:03;;;;;;;4.75;3.27;;;;;;;16.92;64.64;100075.36;1765829;79;21052;-71
2022/05/30 07:31:29;;;;;;;7.45;3.58;;;;;;;16.66;64.22;100068.29;1765894;79;21017;-70
2022/05/30 07:33:55;;;;;;;3.10;2.60;;;;;;;16.48;63.91;100071.68;1767219;79;21628;-70
2022/05/30 07:36:27;;;;;;;4.33;2.58;;;;;;;16.36;63.50;100076.62;1749070;79;21688;-70
2022/05/30 07:38:53;;;;;;;5.70;3.30;;;;;;;16.40;63.07;100077.31;1768822;79;21517;-70
2022/05/30 07:41:20;;;;;;;4.50;2.50;;;;;;;16.62;62.60;100074.31;1771714;79;21402;-71
2022/05/30 07:43:47;;;;;;;4.60;2.60;;;;;;;16.78;62.04;100073.81;1769328;79;21038;-70
2022/05/30 07:46:14;;;;;;;5.80;3.02;;;;;;;17.05;61.58;100078.47;1769163;79;21498;-71
2022/05/30 07:48:40;;;;;;;4.85;2.80;;;;;;;17.53;61.21;100074.59;1768974;79;21005;-70
2022/05/30 07:51:07;;;;;;;4.03;2.35;;;;;;;17.98;60.65;100075.19;1743224;80;21006;-71
2022/05/30 07:53:33;;;;;;;3.70;2.30;;;;;;;18.22;59.99;100072.39;1745621;80;21514;-70
2022/05/30 07:56:00;;;;;;;6.40;1.92;;;;;;;18.32;59.25;100072.67;1763325;79;20998;-70
2022/05/30 07:58:26;;;;;;;3.65;1.20;;;;;;;18.23;58.52;100074.54;1766055;79;21116;-73
2022/05/30 08:00:52;;;;;;;4.00;2.00;;;;;;;17.98;57.89;100078.69;1763024;79;21136;-72
2022/05/30 08:03:19;;;;;;;3.20;2.45;;;;;;;17.81;57.38;100075.78;1763131;79;21658;-73
2022/05/30 08:05:46;;;;;;;3.37;1.98;;;;;;;17.68;56.90;100078.63;1766145;79;21000;-73
2022/05/30 08:08:13;;;;;;;4.40;2.42;;;;;;;17.49;56.59;100077.73;1766626;79;21004;-72
2022/05/30 08:10:39;;;;;;;5.53;2.20;;;;;;;17.14;56.15;100082.00;1769434;79;21034;-72
2022/05/30 08:13:05;;;;;;;2.95;2.08;;;;;;;16.88;56.00;100079.53;1744004;80;21308;-73
2022/05/30 08:15:31;;;;;;;4.45;2.05;;;;;;;16.71;55.83;100081.11;1765712;79;21038;-73
2022/05/30 08:17:58;;;;;;;2.80;1.92;;;;;;;16.56;55.69;100080.58;1765646;79;20941;-72
2022/05/30 08:20:27;;;;;;;3.35;2.15;;;;;;;16.52;55.53;100079.32;1766833;79;21487;-72
2022/05/30 08:22:53;;;;;;;4.78;2.70;;;;;;;16.49;55.43;100080.59;1769252;79;21042;-72
2022/05/30 08:25:19;;;;;;;5.80;3.02;;;;;;;16.41;55.34;100078.14;1718643;82;21553;-72
2022/05/30 08:27:46;;;;;;;6.42;3.45;;;;;;;16.30;55.22;100079.64;1770901;79;20974;-72
2022/05/30 08:30:17;;;;;;;8.28;3.27;;;;;;;16.11;55.21;100085.13;1761857;79;21060;-72
2022/05/30 08:32:45;;;;;;;5.85;3.60;;;;;;;15.73;55.32;100082.34;1764513;79;21026;-72
2022/05/30 08:35:16;;;;;;;6.35;3.50;;;;;;;15.49;55.64;100091.39;1766409;79;20962;-72
2022/05/30 08:37:43;;;;;;;12.45;6.70;;;;;;;15.29;55.96;100098.63;1764518;79;21848;-70
2022/05/30 08:43:15;;;;;;;8.80;4.20;;;;;;;15.09;56.54;100104.52;1708533;82;21029;-69
2022/05/30 08:45:42;;;;;;;4.92;3.75;;;;;;;15.03;56.84;100099.95;1766601;79;28727;-70
2022/05/30 08:48:14;;;;;;;9.03;5.08;;;;;;;15.01;57.08;100103.38;1777544;79;21052;-70
2022/05/30 08:50:55;;;;;;;7.20;3.80;;;;;;;15.00;57.34;100099.86;1769922;79;21121;-69
2022/05/30 08:53:38;;;;;;;6.58;3.50;;;;;;;14.98;57.51;100099.77;1773164;79;21034;-70
2022/05/30 08:56:27;;;;;;;4.83;2.87;;;;;;;14.95;57.64;100103.66;1771932;79;21032;-69
2022/05/30 08:59:01;;;;;;;7.72;3.17;;;;;;;14.96;57.80;100104.49;1768977;79;21061;-70
2022/05/30 09:01:37;;;;;;;7.15;3.40;;;;;;;15.00;57.92;100101.71;1769579;79;20997;-69
2022/05/30 09:04:39;;;;;;;5.10;3.02;;;;;;;15.12;58.08;100112.16;1768435;79;21324;-69
2022/05/30 09:07:28;;;;;;;7.08;3.58;;;;;;;15.12;58.14;100106.80;1759688;79;21031;-69
2022/05/30 09:09:59;;;;;;;4.47;2.10;;;;;;;15.18;58.21;100113.19;1771480;79;21740;-69
2022/05/30 09:12:33;;;;;;;4.67;2.20;;;;;;;15.22;58.30;100112.58;1763610;79;21000;-69
2022/05/30 09:15:18;;;;;;;5.70;2.25;;;;;;;15.22;58.34;100111.23;1762216;79;21006;-70
2022/05/30 09:17:49;;;;;;;5.03;2.33;;;;;;;15.20;58.37;100113.28;1762789;79;21533;-69
2022/05/30 09:20:20;;;;;;;4.12;2.00;;;;;;;15.18;58.47;100107.81;1765087;79;21527;-70
2022/05/30 09:22:47;;;;;;;9.73;2.62;;;;;;;15.12;58.56;100109.48;1747876;80;21053;-71
2022/05/30 09:28:10;;;;;;;5.40;1.90;;;;;;;15.16;58.70;100112.06;1763717;79;21507;-71
2022/05/30 09:30:44;;;;;;;2.95;1.70;;;;;;;15.09;58.70;100109.89;1782835;79;21812;-71
2022/05/30 09:33:36;;;;;;;6.80;1.95;;;;;;;15.03;58.77;100105.33;1733466;79;21042;-71
2022/05/30 09:36:25;;;;;;;2.85;1.90;;;;;;;15.09;58.80;100103.19;1779829;79;21625;-71
2022/05/30 09:39:07;;;;;;;4.08;2.05;;;;;;;15.11;58.80;100101.10;1776614;79;21260;-71
2022/05/30 09:41:46;;;;;;;6.08;2.87;;;;;;;15.18;58.86;100104.61;1739752;80;21005;-71
2022/05/30 09:44:26;;;;;;;6.33;2.85;;;;;;;15.24;58.93;100097.58;1772999;79;21084;-71
2022/05/30 09:47:05;;;;;;;3.83;2.25;;;;;;;15.33;59.11;100105.23;1770450;79;21070;-70
2022/05/30 09:49:45;;;;;;;5.58;2.12;;;;;;;15.48;59.21;100109.05;1772001;79;20994;-71
2022/05/30 09:52:35;;;;;;;4.30;1.95;;;;;;;15.62;59.30;100104.52;1771899;79;21018;-71
2022/05/30 09:55:27;;;;;;;5.83;1.95;;;;;;;15.75;59.24;100108.52;1780081;79;21407;-71
2022/05/30 09:57:54;;;;;;;3.22;1.30;;;;;;;15.95;59.27;100107.94;1772444;79;21139;-71
2022/05/30 10:00:40;;;;;;;4.28;1.57;;;;;;;16.09;59.18;100109.54;1777708;79;21076;-71
2022/05/30 10:03:28;;;;;;;3.15;1.40;;;;;;;16.10;58.92;100104.47;1780247;79;21482;-71
2022/05/30 10:06:16;;;;;;;4.22;1.80;;;;;;;16.26;58.73;100098.59;1777872;79;21010;-71
2022/05/30 10:08:43;;;;;;;3.02;1.45;;;;;;;16.41;58.41;100099.16;1752096;79;21119;-71
2022/05/30 10:11:09;;;;;;;3.85;1.45;;;;;;;16.47;58.04;100094.25;1755468;80;21882;-71
2022/05/30 10:13:38;;;;;;;4.25;1.80;;;;;;;16.55;57.79;100100.42;1768226;79;21510;-71
2022/05/30 10:16:14;;;;;;;3.98;1.90;;;;;;;16.63;57.56;100098.34;1774630;79;20974;-70
2022/05/30 10:18:55;;;;;;;3.10;1.35;;;;;;;16.53;57.12;100097.96;1732688;81;21042;-71
2022/05/30 10:28:14;;;;;;;2.83;1.22;;;;;;;16.64;56.85;100100.52;1722222;82;21085;-72
2022/05/30 10:30:21;;;;;;;2.12;1.20;;;;;;;17.18;55.86;100088.61;1731655;82;21539;-73
2022/05/30 10:33:11;;;;;;;3.33;1.10;;;;;;;17.55;55.50;100091.39;1748607;80;21026;-71
2022/05/30 10:35:54;;;;;;;1.25;0.82;;;;;;;18.21;54.97;100085.58;1748772;80;21490;-71
2022/05/30 10:38:34;;;;;;;3.98;1.20;;;;;;;18.79;54.40;100080.95;1755333;80;21076;-71
2022/05/30 10:41:23;;;;;;;2.65;1.40;;;;;;;19.03;53.86;100081.32;1749641;80;21064;-71
2022/05/30 10:44:01;;;;;;;5.03;1.57;;;;;;;19.21;53.36;100084.45;1722432;82;21498;-71
2022/05/30 10:47:06;;;;;;;3.17;1.30;;;;;;;19.12;52.82;100090.72;1705328;82;21050;-71
2022/05/30 10:49:38;;;;;;;2.25;1.50;;;;;;;19.04;52.41;100091.05;1759587;80;21076;-71
2022/05/30 10:52:12;;;;;;;4.95;2.20;;;;;;;18.75;52.09;100090.03;1742364;81;21180;-71
2022/05/30 10:54:42;;;;;;;3.17;1.57;;;;;;;18.56;51.93;100086.28;1750478;81;21033;-72
2022/05/30 10:57:55;;;;;;;2.08;1.20;;;;;;;18.46;51.67;100084.11;1734907;80;21069;-71
2022/05/30 11:00:25;;;;;;;2.65;1.57;;;;;;;18.38;51.50;100090.65;1708333;83;21549;-70
2022/05/30 11:03:35;;;;;;;3.20;1.12;;;;;;;18.33;51.29;100095.09;1663450;84;21106;-71
2022/05/30 11:06:09;;;;;;;3.58;1.10;;;;;;;18.17;51.19;100085.73;1747804;80;21156;-70
2022/05/30 11:08:52;;;;;;;3.22;1.45;;;;;;;18.25;51.15;100087.30;1752915;80;21061;-71
2022/05/30 11:11:22;;;;;;;3.87;1.60;;;;;;;18.16;50.98;100092.17;1756401;80;21034;-71
2022/05/30 11:14:12;;;;;;;1.70;1.10;;;;;;;18.08;51.01;100088.97;1676635;85;21041;-71
2022/05/30 11:16:45;;;;;;;3.67;1.35;;;;;;;18.03;50.92;100093.69;1673554;85;21082;-71
2022/05/30 11:19:49;;;;;;;3.25;1.30;;;;;;;18.17;50.85;100093.83;1755054;80;21144;-71
2022/05/30 11:22:29;;;;;;;2.55;1.55;;;;;;;18.21;50.63;100090.98;1734951;81;21091;-71
2022/05/30 11:24:55;;;;;;;3.27;1.50;;;;;;;18.27;50.46;100090.59;1765741;81;21075;-72
2022/05/30 11:27:55;;;;;;;1.62;1.30;;;;;;;18.27;50.37;100088.72;1765940;81;20996;-71
2022/05/30 11:30:35;;;;;;;2.10;1.10;;;;;;;18.24;50.37;100083.77;1739588;81;21048;-71
2022/05/30 11:33:39;;;;;;;2.05;1.27;;;;;;;18.38;50.34;100085.25;1765723;80;21089;-72
2022/05/30 11:36:39;;;;;;;3.98;1.52;;;;;;;18.46;50.30;100084.94;1768983;79;21020;-71
2022/05/30 11:39:23;;;;;;;6.35;2.00;;;;;;;18.66;50.21;100078.45;1790486;79;20983;-71
2022/05/30 11:42:17;;;;;;;3.40;1.40;;;;;;;18.91;50.05;100079.11;1798021;79;21441;-72
2022/05/30 11:45:02;;;;;;;2.25;1.17;;;;;;;18.96;49.90;100076.55;1736046;82;21000;-71
2022/05/30 11:48:04;;;;;;;6.65;1.50;;;;;;;19.21;49.80;100085.25;1736405;82;21825;-72
2022/05/30 11:50:35;;;;;;;1.77;1.20;;;;;;;19.34;49.52;100086.41;1764284;81;21055;-72
2022/05/30 11:53:24;;;;;;;1.98;1.25;;;;;;;19.37;49.30;100084.58;1795564;79;21021;-71
2022/05/30 11:56:22;;;;;;;2.42;1.30;;;;;;;19.38;49.13;100087.59;1795100;79;20983;-72
2022/05/30 11:59:16;;;;;;;5.37;1.47;;;;;;;19.35;48.85;100088.03;1797735;79;21040;-71
2022/05/30 12:01:42;;;;;;;3.45;1.42;;;;;;;19.15;48.45;100082.14;1795948;79;21502;-72
2022/05/30 12:04:56;;;;;;;3.05;1.30;;;;;;;18.91;47.99;100090.75;1791521;79;21071;-72
2022/05/30 12:07:37;;;;;;;4.03;1.30;;;;;;;18.79;47.66;100089.05;1762178;81;21037;-71
2022/05/30 12:10:32;;;;;;;2.87;2.20;;;;;;;18.62;47.46;100087.53;1738079;82;21152;-71